Time;durP1;ratioP1;P1;durP2;ratioP2;P2;SDS_P1;SDS_P2;PMS_P1;PMS_P2;Temp;Humidity;BMP_temperature;BMP_pressure;BME280_temperature;BME280_humidity;BME280_pressure;Samples;Min_cycle;Max_cycle;Signal;HPM_P1;HPM_P2
2023/04/20 00:01:46;;;;;;;10.40;3.63;;;6.90;99.90;;;;;;5023529;28;20479;-75
2023/04/20 00:04:15;;;;;;;7.20;4.30;;;6.90;99.90;;;;;;5038212;28;20422;-75
2023/04/20 00:06:42;;;;;;;6.22;3.42;;;7.00;99.90;;;;;;5026615;28;20879;-76
2023/04/20 00:09:09;;;;;;;9.32;3.75;;;6.80;99.90;;;;;;5040974;28;20425;-75
2023/04/20 00:11:35;;;;;;;5.67;3.50;;;6.90;99.90;;;;;;5039535;28;20425;-76
2023/04/20 00:14:01;;;;;;;7.60;3.85;;;6.90;99.90;;;;;;5040429;28;20423;-76
2023/04/20 00:16:27;;;;;;;8.05;3.13;;;6.90;99.90;;;;;;5039206;28;20452;-77
2023/04/20 00:18:53;;;;;;;7.78;3.22;;;7.10;99.90;;;;;;5021361;28;20428;-76
2023/04/20 00:21:23;;;;;;;6.80;3.47;;;7.10;99.90;;;;;;5034840;28;20431;-75
2023/04/20 00:23:49;;;;;;;11.00;3.20;;;7.10;99.90;;;;;;5037401;28;20470;-75
2023/04/20 00:26:15;;;;;;;6.63;3.03;;;7.10;99.90;;;;;;5029383;28;20537;-76
2023/04/20 00:28:41;;;;;;;5.40;2.95;;;7.10;99.90;;;;;;5021263;28;20436;-76
2023/04/20 00:31:07;;;;;;;6.35;2.72;;;7.00;99.90;;;;;;5022631;28;20413;-75
2023/04/20 00:33:32;;;;;;;6.85;3.75;;;7.10;99.90;;;;;;5029901;28;20419;-75
2023/04/20 00:35:58;;;;;;;4.60;2.40;;;7.10;99.90;;;;;;5029902;28;20417;-75
2023/04/20 00:38:24;;;;;;;4.60;2.43;;;7.00;99.90;;;;;;5030441;28;20423;-75
2023/04/20 00:40:52;;;;;;;9.37;3.17;;;7.10;99.90;;;;;;5022505;28;20436;-75
2023/04/20 00:43:19;;;;;;;5.60;2.30;;;7.00;99.90;;;;;;5007699;28;20491;-76
2023/04/20 00:45:45;;;;;;;5.68;2.38;;;7.10;99.90;;;;;;5012333;28;20433;-77
2023/04/20 00:48:11;;;;;;;9.18;3.03;;;7.10;99.90;;;;;;5026862;28;20918;-77
2023/04/20 00:50:37;;;;;;;3.90;2.33;;;7.10;99.90;;;;;;5025631;28;20423;-75
2023/04/20 00:53:03;;;;;;;4.22;2.42;;;7.10;99.90;;;;;;5026777;28;20426;-75
2023/04/20 00:55:30;;;;;;;5.40;3.08;;;7.10;99.90;;;;;;5025363;28;20421;-74
2023/04/20 00:57:56;;;;;;;13.13;3.67;;;7.10;99.90;;;;;;5045170;28;20413;-75
2023/04/20 01:00:21;;;;;;;6.07;2.00;;;7.10;99.90;;;;;;5045153;28;20466;-74
2023/04/20 01:02:47;;;;;;;7.53;2.30;;;7.10;99.90;;;;;;5034042;28;21261;-76
2023/04/20 01:05:13;;;;;;;7.38;2.10;;;7.10;99.90;;;;;;5044850;28;20425;-76
2023/04/20 01:07:38;;;;;;;6.15;2.30;;;7.10;99.90;;;;;;5033593;28;20951;-75
2023/04/20 01:10:06;;;;;;;3.93;1.80;;;7.10;99.90;;;;;;5027646;28;20756;-76
2023/04/20 01:12:32;;;;;;;5.43;2.58;;;7.10;99.90;;;;;;5025882;28;20480;-76
2023/04/20 01:14:58;;;;;;;6.38;2.30;;;7.20;99.90;;;;;;5028629;28;20486;-80
2023/04/20 01:17:23;;;;;;;5.73;2.63;;;7.20;99.90;;;;;;5024051;28;20464;-74
2023/04/20 01:19:49;;;;;;;4.53;1.83;;;7.20;99.90;;;;;;5028002;28;20795;-76
2023/04/20 01:22:17;;;;;;;3.03;1.63;;;7.20;99.90;;;;;;5029951;28;20442;-76
2023/04/20 01:24:43;;;;;;;6.78;2.15;;;7.20;99.90;;;;;;5029789;28;20499;-75
2023/04/20 01:27:08;;;;;;;6.05;1.67;;;7.40;99.90;;;;;;5038972;28;20861;-75
2023/04/20 01:29:34;;;;;;;5.23;1.97;;;7.40;99.90;;;;;;5030018;28;20498;-75
2023/04/20 01:32:00;;;;;;;8.10;2.20;;;7.50;99.90;;;;;;5028969;28;20423;-75
2023/04/20 01:34:26;;;;;;;10.13;2.45;;;7.50;99.90;;;;;;5031194;28;20904;-77
2023/04/20 01:36:51;;;;;;;4.03;1.70;;;7.50;99.90;;;;;;5022411;28;20428;-77
2023/04/20 01:39:17;;;;;;;6.23;2.30;;;7.60;99.90;;;;;;5009714;28;20436;-77
2023/04/20 01:41:43;;;;;;;8.70;2.03;;;7.60;99.90;;;;;;5016220;28;20427;-77
2023/04/20 01:44:09;;;;;;;8.38;1.92;;;7.60;99.90;;;;;;5027879;28;20445;-76
2023/04/20 01:46:38;;;;;;;4.50;2.00;;;7.60;99.90;;;;;;5030354;28;20454;-76
2023/04/20 01:49:05;;;;;;;6.68;1.92;;;7.60;99.90;;;;;;5031227;28;20418;-75
2023/04/20 01:51:32;;;;;;;6.10;2.37;;;7.60;99.90;;;;;;5031255;28;20418;-76
2023/04/20 01:53:58;;;;;;;6.88;3.08;;;7.60;99.90;;;;;;5022788;28;20429;-78
2023/04/20 01:56:24;;;;;;;4.70;1.45;;;7.70;99.90;;;;;;5026204;28;20505;-75
2023/04/20 01:58:50;;;;;;;4.73;2.20;;;7.60;99.90;;;;;;5031173;28;20495;-76
2023/04/20 02:01:16;;;;;;;7.40;2.17;;;7.60;99.90;;;;;;5029563;28;20407;-76
2023/04/20 02:03:41;;;;;;;5.50;1.87;;;7.60;99.90;;;;;;5013196;28;20415;-77
2023/04/20 02:06:07;;;;;;;4.80;1.70;;;7.60;99.90;;;;;;5029690;28;20498;-77
2023/04/20 02:08:33;;;;;;;9.17;2.00;;;7.50;99.90;;;;;;5029966;28;20470;-75
2023/04/20 02:10:59;;;;;;;5.55;2.25;;;7.50;99.90;;;;;;5028140;28;20419;-75
2023/04/20 02:13:25;;;;;;;6.05;1.80;;;7.40;99.90;;;;;;5030327;28;20411;-75
2023/04/20 02:15:51;;;;;;;7.85;2.13;;;7.40;99.90;;;;;;5010478;28;20504;-76
2023/04/20 02:18:17;;;;;;;5.18;2.28;;;7.30;99.90;;;;;;5020601;28;21058;-75
2023/04/20 02:20:43;;;;;;;7.40;1.93;;;7.20;99.90;;;;;;5024296;28;20423;-77
2023/04/20 02:23:09;;;;;;;6.83;2.00;;;7.20;99.90;;;;;;5029891;28;20419;-79
2023/04/20 02:25:35;;;;;;;5.50;1.90;;;7.20;99.90;;;;;;5030066;28;20802;-76
2023/04/20 02:28:01;;;;;;;11.05;2.30;;;7.10;99.90;;;;;;5025884;28;20807;-77
2023/04/20 02:30:26;;;;;;;7.20;2.38;;;7.00;99.90;;;;;;5028214;28;20843;-76
2023/04/20 02:32:52;;;;;;;5.65;2.03;;;7.00;99.90;;;;;;5022541;28;20423;-77
2023/04/20 02:35:18;;;;;;;5.97;2.63;;;7.00;99.90;;;;;;5026916;28;20431;-76
2023/04/20 02:37:44;;;;;;;6.00;1.85;;;7.00;99.90;;;;;;5043406;28;20457;-76
2023/04/20 02:40:11;;;;;;;5.22;1.70;;;6.90;99.90;;;;;;5048664;28;20413;-76
2023/04/20 02:42:37;;;;;;;6.30;2.10;;;6.90;99.90;;;;;;5048578;28;20941;-76
2023/04/20 02:45:03;;;;;;;6.20;2.07;;;6.80;99.90;;;;;;5018325;28;20436;-76
2023/04/20 02:47:28;;;;;;;7.72;2.60;;;6.80;99.90;;;;;;5028222;28;20434;-76
2023/04/20 02:49:54;;;;;;;10.48;2.75;;;6.80;99.90;;;;;;5028421;28;20477;-75
2023/04/20 02:52:20;;;;;;;5.38;2.05;;;6.80;99.90;;;;;;5027162;28;20931;-74
2023/04/20 02:54:46;;;;;;;10.80;2.72;;;6.90;99.90;;;;;;5026753;28;20838;-73
2023/04/20 02:57:11;;;;;;;8.60;2.53;;;6.80;99.90;;;;;;5029185;28;20423;-76
2023/04/20 02:59:37;;;;;;;5.22;2.25;;;6.80;99.90;;;;;;5028842;28;20414;-76
2023/04/20 03:02:03;;;;;;;9.00;2.72;;;6.90;99.90;;;;;;5057579;28;20435;-75
2023/04/20 03:04:29;;;;;;;7.80;2.60;;;7.00;99.90;;;;;;5025545;28;20419;-76
2023/04/20 03:06:56;;;;;;;8.77;2.60;;;6.90;99.90;;;;;;5021475;28;20519;-79
2023/04/20 03:09:22;;;;;;;10.32;2.70;;;7.00;99.90;;;;;;5021565;28;20442;-77
2023/04/20 03:11:48;;;;;;;6.73;2.30;;;7.00;99.90;;;;;;5023911;28;20589;-78
2023/04/20 03:14:14;;;;;;;7.60;2.30;;;7.10;99.90;;;;;;5023473;28;20414;-76
2023/04/20 03:16:40;;;;;;;6.80;2.10;;;7.10;99.90;;;;;;5019036;28;20425;-75
2023/04/20 03:19:06;;;;;;;9.77;3.20;;;7.10;99.90;;;;;;5036576;28;20922;-78
2023/04/20 03:21:32;;;;;;;9.43;2.95;;;7.10;99.90;;;;;;5035444;28;20419;-77
2023/04/20 03:24:01;;;;;;;5.22;2.53;;;7.20;99.90;;;;;;5028942;28;20407;-78
2023/04/20 03:26:26;;;;;;;6.40;2.45;;;7.10;99.90;;;;;;5027537;28;20431;-77
2023/04/20 03:28:52;;;;;;;6.97;3.20;;;7.20;99.90;;;;;;5026962;28;20430;-76
2023/04/20 03:31:18;;;;;;;11.15;3.22;;;7.20;99.90;;;;;;5027585;28;20414;-74
2023/04/20 03:33:44;;;;;;;8.13;2.50;;;7.30;99.90;;;;;;5028657;28;20521;-75
2023/04/20 03:36:13;;;;;;;6.72;2.20;;;7.40;99.90;;;;;;5026883;28;20443;-76
2023/04/20 03:38:38;;;;;;;6.43;2.22;;;7.40;99.90;;;;;;5026440;28;20429;-77
2023/04/20 03:41:04;;;;;;;6.37;2.50;;;7.50;99.90;;;;;;5028105;28;20419;-77
2023/04/20 03:43:30;;;;;;;5.43;2.30;;;7.70;99.90;;;;;;5015906;28;20477;-77
2023/04/20 03:45:56;;;;;;;11.67;2.40;;;7.60;99.90;;;;;;5028348;28;20498;-77
2023/04/20 03:48:21;;;;;;;7.70;2.53;;;7.70;99.90;;;;;;5028390;28;20470;-77
2023/04/20 03:50:47;;;;;;;9.33;3.20;;;7.70;99.90;;;;;;5023203;28;21205;-77
2023/04/20 03:53:12;;;;;;;7.13;2.90;;;7.70;99.90;;;;;;5021301;28;20470;-75
2023/04/20 03:55:38;;;;;;;8.03;3.10;;;7.80;99.90;;;;;;5019488;28;20939;-75
2023/04/20 03:58:05;;;;;;;10.25;3.25;;;7.70;99.90;;;;;;5020950;28;20513;-76
2023/04/20 04:00:31;;;;;;;7.97;2.60;;;7.80;99.90;;;;;;5020673;28;20431;-77
2023/04/20 04:02:57;;;;;;;8.02;2.65;;;7.80;99.90;;;;;;5019926;28;20438;-76
2023/04/20 04:05:24;;;;;;;9.15;2.78;;;7.70;99.90;;;;;;5025267;28;20421;-76
2023/04/20 04:07:50;;;;;;;6.32;2.50;;;7.70;99.90;;;;;;5025591;28;20507;-77
2023/04/20 04:10:17;;;;;;;8.95;2.47;;;7.80;99.90;;;;;;5021236;28;20793;-76
2023/04/20 04:12:44;;;;;;;6.70;2.63;;;7.80;99.90;;;;;;5023105;28;20423;-76
2023/04/20 04:15:11;;;;;;;7.95;2.60;;;7.90;99.90;;;;;;5018245;28;20449;-77
2023/04/20 04:17:37;;;;;;;6.15;2.50;;;7.80;99.90;;;;;;5020842;28;20431;-75
2023/04/20 04:20:03;;;;;;;6.70;1.95;;;7.80;99.90;;;;;;5027556;28;20510;-76
2023/04/20 04:22:28;;;;;;;6.07;2.45;;;7.90;99.90;;;;;;5038289;28;20490;-75
2023/04/20 04:24:54;;;;;;;6.85;2.00;;;7.80;99.90;;;;;;5027632;28;20864;-77
2023/04/20 04:27:21;;;;;;;9.35;2.42;;;7.90;99.90;;;;;;5025498;28;20422;-80
2023/04/20 04:29:48;;;;;;;4.28;2.45;;;7.90;99.90;;;;;;5027014;28;20419;-77
2023/04/20 04:32:15;;;;;;;6.65;2.80;;;8.00;99.90;;;;;;5030012;28;20423;-77
2023/04/20 04:34:43;;;;;;;8.43;2.87;;;8.00;99.90;;;;;;5027757;28;20482;-76
2023/04/20 04:37:13;;;;;;;5.00;1.98;;;8.10;99.90;;;;;;5022242;28;20778;-76
2023/04/20 04:39:39;;;;;;;5.72;1.73;;;8.00;99.90;;;;;;5016088;28;20473;-77
2023/04/20 04:42:05;;;;;;;7.90;2.25;;;8.00;99.90;;;;;;5029368;28;20454;-76
2023/04/20 04:44:30;;;;;;;6.60;1.77;;;8.00;99.90;;;;;;5031341;28;20437;-79
2023/04/20 04:46:57;;;;;;;7.70;1.90;;;7.90;99.90;;;;;;5031265;28;20468;-76
2023/04/20 04:49:26;;;;;;;4.72;1.63;;;7.90;99.90;;;;;;5031946;28;20906;-78
2023/04/20 04:51:51;;;;;;;7.05;2.13;;;7.90;99.90;;;;;;5030894;28;20462;-76
2023/04/20 04:54:17;;;;;;;4.30;1.80;;;8.00;99.90;;;;;;5030734;28;20455;-78
2023/04/20 04:56:43;;;;;;;17.23;2.25;;;8.00;99.90;;;;;;5028676;28;20883;-78
2023/04/20 04:59:09;;;;;;;5.85;2.17;;;8.10;99.90;;;;;;5030639;28;20968;-75
2023/04/20 05:01:34;;;;;;;5.78;1.77;;;8.10;99.90;;;;;;5036302;28;20432;-75
2023/04/20 05:04:00;;;;;;;4.43;1.70;;;8.00;99.90;;;;;;5031528;28;20921;-75
2023/04/20 05:06:26;;;;;;;7.03;2.25;;;8.10;99.90;;;;;;5031970;28;20416;-75
2023/04/20 05:08:52;;;;;;;5.03;1.98;;;8.20;99.90;;;;;;5033778;28;20433;-75
2023/04/20 05:11:17;;;;;;;6.53;2.08;;;8.10;99.90;;;;;;5051477;28;20424;-76
2023/04/20 05:13:43;;;;;;;7.10;2.10;;;8.10;99.90;;;;;;5030041;28;20486;-76
2023/04/20 05:16:10;;;;;;;7.50;1.70;;;8.10;99.90;;;;;;5026997;28;20426;-77
2023/04/20 05:18:35;;;;;;;6.38;2.22;;;8.10;99.90;;;;;;5031456;28;20423;-77
2023/04/20 05:21:01;;;;;;;4.38;1.58;;;8.10;99.90;;;;;;5030280;28;20427;-76
2023/04/20 05:23:27;;;;;;;5.07;1.70;;;8.00;99.90;;;;;;5031931;28;20448;-76
2023/04/20 05:25:52;;;;;;;6.32;2.70;;;8.00;99.90;;;;;;5051047;28;20770;-75
2023/04/20 05:28:18;;;;;;;4.82;2.33;;;8.00;99.90;;;;;;5030885;28;20422;-75
2023/04/20 05:30:44;;;;;;;6.78;2.10;;;7.80;99.90;;;;;;5024014;28;20420;-75
2023/04/20 05:33:09;;;;;;;5.53;2.08;;;7.80;99.90;;;;;;5022507;28;20923;-76
2023/04/20 05:35:35;;;;;;;8.30;1.90;;;7.70;99.90;;;;;;5034932;28;20907;-76
2023/04/20 05:38:04;;;;;;;4.50;1.60;;;7.80;99.90;;;;;;5034238;28;20437;-76
2023/04/20 05:40:31;;;;;;;3.05;1.52;;;7.80;99.90;;;;;;5030992;28;20430;-78
2023/04/20 05:42:56;;;;;;;4.55;1.90;;;7.80;99.90;;;;;;5011047;28;20918;-76
2023/04/20 05:45:22;;;;;;;6.63;1.70;;;7.70;99.90;;;;;;5028370;28;20427;-78
2023/04/20 05:47:55;;;;;;;4.47;1.65;;;7.50;99.90;;;;;;5047222;28;20429;-75
2023/04/20 05:50:25;;;;;;;6.28;1.75;;;7.40;99.90;;;;;;5030937;28;20419;-77
2023/04/20 05:52:51;;;;;;;5.13;2.53;;;6.70;99.90;;;;;;5014929;28;20498;-77
2023/04/20 05:55:18;;;;;;;6.65;3.25;;;6.80;99.90;;;;;;5030920;28;20501;-77
2023/04/20 05:57:43;;;;;;;5.30;2.20;;;7.20;99.90;;;;;;5035229;28;20447;-76
2023/04/20 06:00:15;;;;;;;6.50;2.13;;;7.10;99.90;;;;;;5028431;28;20469;-76
2023/04/20 06:02:41;;;;;;;8.90;2.40;;;7.10;99.90;;;;;;5033693;28;20422;-77
2023/04/20 06:05:09;;;;;;;6.00;2.65;;;7.20;99.90;;;;;;5029888;28;20488;-76
2023/04/20 06:07:35;;;;;;;6.47;2.22;;;7.20;99.90;;;;;;5028810;28;20435;-77
2023/04/20 06:10:01;;;;;;;7.20;2.45;;;7.20;99.90;;;;;;5039154;28;20453;-77
2023/04/20 06:12:30;;;;;;;6.10;2.70;;;7.40;99.90;;;;;;5036650;28;20493;-77
2023/04/20 06:14:56;;;;;;;7.83;2.37;;;7.50;99.90;;;;;;5028469;28;20454;-77
2023/04/20 06:17:22;;;;;;;7.43;1.90;;;7.60;99.90;;;;;;5027530;28;20454;-77
2023/04/20 06:19:48;;;;;;;7.45;2.58;;;7.50;99.90;;;;;;5032539;28;20447;-76
2023/04/20 06:22:14;;;;;;;6.72;2.15;;;7.50;99.90;;;;;;5040970;28;20433;-76
2023/04/20 06:24:41;;;;;;;7.22;2.17;;;7.50;99.90;;;;;;5039230;28;20741;-75
2023/04/20 06:27:09;;;;;;;5.10;2.00;;;7.40;99.90;;;;;;5028866;28;20510;-77
2023/04/20 06:29:35;;;;;;;8.60;2.10;;;7.50;99.90;;;;;;5032144;28;20897;-76
2023/04/20 06:32:01;;;;;;;6.28;2.30;;;7.50;99.90;;;;;;5030691;28;20451;-76
2023/04/20 06:34:27;;;;;;;7.18;1.83;;;7.50;99.90;;;;;;5029225;28;20940;-76
2023/04/20 06:36:52;;;;;;;6.68;2.20;;;7.50;99.90;;;;;;5029463;28;20529;-76
2023/04/20 06:39:18;;;;;;;5.72;2.20;;;7.50;99.90;;;;;;5038558;28;20951;-76
2023/04/20 06:41:44;;;;;;;5.55;2.15;;;7.50;99.90;;;;;;5037255;28;20977;-75
2023/04/20 06:44:10;;;;;;;4.00;1.95;;;7.30;99.90;;;;;;5041626;28;20496;-76
2023/04/20 06:46:36;;;;;;;5.87;2.57;;;7.00;99.90;;;;;;5029882;28;20430;-76
2023/04/20 06:49:02;;;;;;;5.45;1.70;;;6.90;99.90;;;;;;5041825;28;20436;-77
2023/04/20 06:51:28;;;;;;;5.50;2.28;;;6.70;99.90;;;;;;5031843;28;20411;-77
2023/04/20 06:53:55;;;;;;;5.70;2.47;;;6.50;99.90;;;;;;5035152;28;20459;-76
2023/04/20 06:56:23;;;;;;;4.30;2.33;;;6.50;99.90;;;;;;5016673;28;20440;-77
2023/04/20 06:58:49;;;;;;;4.63;2.40;;;6.50;99.90;;;;;;5026882;28;20943;-76
2023/04/20 07:01:15;;;;;;;8.65;2.83;;;6.50;99.90;;;;;;5032213;28;20415;-77
2023/04/20 07:03:40;;;;;;;5.97;2.65;;;6.30;99.90;;;;;;5029132;28;20419;-77
2023/04/20 07:06:06;;;;;;;7.05;2.40;;;6.20;99.90;;;;;;5041077;28;20417;-77
2023/04/20 07:08:32;;;;;;;7.55;2.75;;;6.10;99.90;;;;;;5049544;28;20727;-77
2023/04/20 07:10:58;;;;;;;6.55;2.90;;;5.90;99.90;;;;;;5044889;28;20425;-78
2023/04/20 07:13:24;;;;;;;8.30;3.05;;;5.90;99.90;;;;;;5049365;28;20413;-76
2023/04/20 07:15:51;;;;;;;7.10;3.10;;;6.00;99.90;;;;;;5029469;28;20434;-75
2023/04/20 07:18:16;;;;;;;5.22;2.67;;;5.90;99.90;;;;;;5041511;28;21020;-76
2023/04/20 07:20:43;;;;;;;7.10;2.83;;;5.90;99.90;;;;;;5040920;28;20500;-77
2023/04/20 07:23:08;;;;;;;7.30;3.13;;;6.10;99.90;;;;;;5007985;28;20495;-78
2023/04/20 07:25:34;;;;;;;4.95;2.55;;;6.10;99.90;;;;;;5029448;28;20500;-78
2023/04/20 07:28:00;;;;;;;5.90;2.65;;;6.20;99.90;;;;;;5048877;28;20429;-76
2023/04/20 07:30:25;;;;;;;6.53;3.50;;;6.10;99.90;;;;;;5026242;28;20423;-76
2023/04/20 07:32:51;;;;;;;5.45;3.22;;;6.20;99.90;;;;;;5026660;28;20446;-77
2023/04/20 07:35:17;;;;;;;7.83;3.60;;;6.20;99.90;;;;;;5023000;28;20430;-78
2023/04/20 07:37:42;;;;;;;6.50;3.00;;;6.20;99.90;;;;;;5008567;28;20431;-78
2023/04/20 07:40:09;;;;;;;5.30;2.80;;;6.40;99.90;;;;;;5032012;28;20423;-77
2023/04/20 07:42:35;;;;;;;7.68;2.60;;;6.40;99.90;;;;;;5029190;28;20458;-77
2023/04/20 07:45:03;;;;;;;9.32;2.72;;;6.20;99.90;;;;;;5022935;28;20430;-77
2023/04/20 07:47:28;;;;;;;7.30;3.00;;;6.30;99.90;;;;;;5026841;28;20430;-71
2023/04/20 07:49:54;;;;;;;4.57;2.58;;;6.40;99.90;;;;;;5028655;28;20454;-75
2023/04/20 07:52:20;;;;;;;7.18;2.50;;;6.50;99.90;;;;;;5033966;28;20438;-76
2023/04/20 07:54:45;;;;;;;5.95;2.90;;;6.50;99.90;;;;;;5022733;28;20425;-76
2023/04/20 07:57:11;;;;;;;6.78;2.90;;;6.50;99.90;;;;;;5006525;28;20425;-76
2023/04/20 07:59:38;;;;;;;6.13;3.33;;;6.60;99.90;;;;;;5023334;28;20449;-76
2023/04/20 08:02:03;;;;;;;3.70;2.65;;;6.60;99.90;;;;;;5023710;28;20933;-76
2023/04/20 08:04:29;;;;;;;5.32;2.88;;;6.70;99.90;;;;;;5035690;28;20429;-75
2023/04/20 08:06:55;;;;;;;5.55;2.70;;;6.60;99.90;;;;;;5024314;28;20542;-76
2023/04/20 08:09:21;;;;;;;7.45;3.10;;;6.70;99.90;;;;;;5025640;28;20749;-76
2023/04/20 08:11:47;;;;;;;6.50;3.10;;;6.60;99.90;;;;;;5021959;28;20422;-75
2023/04/20 08:14:14;;;;;;;5.32;2.70;;;6.70;99.90;;;;;;5024279;28;20465;-77
2023/04/20 08:16:40;;;;;;;7.70;3.30;;;6.60;99.90;;;;;;5037841;28;20808;-75
2023/04/20 08:19:09;;;;;;;7.05;3.22;;;6.80;99.90;;;;;;5035124;28;20429;-76
2023/04/20 08:21:38;;;;;;;7.35;3.13;;;6.90;99.90;;;;;;5042291;28;20426;-75
2023/04/20 08:24:04;;;;;;;5.10;2.70;;;6.90;99.90;;;;;;5021028;28;20430;-76
2023/04/20 08:26:30;;;;;;;8.15;3.35;;;6.90;99.90;;;;;;5034139;28;20484;-73
2023/04/20 08:28:56;;;;;;;6.20;2.90;;;6.70;99.90;;;;;;5033159;28;20432;-75
2023/04/20 08:31:22;;;;;;;5.95;3.08;;;6.80;99.90;;;;;;5042072;28;20415;-75
2023/04/20 08:33:48;;;;;;;5.88;2.70;;;6.60;99.90;;;;;;5025714;28;20854;-75
2023/04/20 08:36:14;;;;;;;4.88;2.60;;;6.60;99.90;;;;;;5024813;28;20419;-75
2023/04/20 08:38:39;;;;;;;5.75;2.47;;;6.70;99.90;;;;;;5045463;28;20432;-75
2023/04/20 08:41:05;;;;;;;5.57;3.10;;;6.80;99.90;;;;;;5031040;28;20423;-76
2023/04/20 08:43:31;;;;;;;8.65;4.00;;;6.70;99.90;;;;;;5033790;28;20425;-74
2023/04/20 08:46:04;;;;;;;5.13;2.85;;;6.90;99.90;;;;;;5031197;28;20881;-76
2023/04/20 08:48:35;;;;;;;8.57;3.27;;;6.80;99.90;;;;;;5030705;28;20535;-76
2023/04/20 08:51:02;;;;;;;5.32;2.80;;;6.70;99.90;;;;;;5021598;28;20428;-75
2023/04/20 08:53:28;;;;;;;8.25;3.10;;;6.60;99.90;;;;;;5035078;28;20423;-76
2023/04/20 08:55:56;;;;;;;5.90;2.67;;;6.60;99.90;;;;;;5016354;28;20423;-75
2023/04/20 08:58:24;;;;;;;7.97;3.60;;;6.60;99.90;;;;;;5025786;28;20423;-77
2023/04/20 09:00:50;;;;;;;8.05;2.92;;;6.60;99.90;;;;;;5040885;28;20453;-76
2023/04/20 09:03:16;;;;;;;5.60;3.20;;;6.70;99.90;;;;;;5035289;28;20469;-75
2023/04/20 09:05:43;;;;;;;6.45;3.05;;;6.70;99.90;;;;;;5025395;28;20429;-77
2023/04/20 09:08:09;;;;;;;4.95;2.60;;;6.70;99.90;;;;;;5024272;28;20504;-77
2023/04/20 09:10:43;;;;;;;5.77;2.93;;;6.90;99.90;;;;;;5026061;28;20521;-79
2023/04/20 09:13:20;;;;;;;6.90;3.13;;;6.80;99.90;;;;;;5023959;28;20438;-77
2023/04/20 09:15:46;;;;;;;5.70;3.17;;;6.90;99.90;;;;;;5037929;28;21376;-76
2023/04/20 09:18:13;;;;;;;8.05;3.30;;;7.00;99.90;;;;;;5034540;28;20430;-78
2023/04/20 09:20:42;;;;;;;6.85;3.40;;;7.20;99.90;;;;;;5019485;28;20508;-76
2023/04/20 09:23:16;;;;;;;5.45;3.20;;;7.20;99.90;;;;;;5029807;28;20556;-76
2023/04/20 09:25:45;;;;;;;4.57;3.17;;;7.50;99.90;;;;;;5035681;28;20773;-76
2023/04/20 09:28:12;;;;;;;7.05;3.20;;;7.50;99.90;;;;;;5041983;28;20423;-76
2023/04/20 09:30:45;;;;;;;7.78;3.42;;;7.40;99.90;;;;;;5029582;28;20576;-75
2023/04/20 09:33:13;;;;;;;7.35;3.50;;;7.40;99.90;;;;;;5027855;28;20460;-76
2023/04/20 09:35:43;;;;;;;6.18;3.13;;;7.60;99.90;;;;;;5035589;28;20436;-76
2023/04/20 09:38:09;;;;;;;7.00;3.90;;;7.50;99.90;;;;;;5037939;28;20577;-76
2023/04/20 09:40:35;;;;;;;6.13;3.38;;;7.60;99.90;;;;;;5030643;28;20404;-77
2023/04/20 09:43:18;;;;;;;9.27;4.25;;;7.50;99.90;;;;;;5031462;28;20433;-76
2023/04/20 09:45:44;;;;;;;10.10;4.40;;;7.90;99.90;;;;;;5027907;28;20438;-76
2023/04/20 09:48:10;;;;;;;6.07;3.40;;;8.10;99.90;;;;;;5027034;28;20544;-77
2023/04/20 09:50:37;;;;;;;5.80;3.67;;;7.90;99.90;;;;;;5024329;28;20423;-76
2023/04/20 09:53:03;;;;;;;6.90;3.80;;;7.80;99.90;;;;;;5040783;28;20423;-76
2023/04/20 09:55:32;;;;;;;6.20;3.60;;;8.00;99.90;;;;;;5016111;28;20425;-75
2023/04/20 09:58:01;;;;;;;9.68;4.18;;;7.80;99.90;;;;;;5025028;28;20419;-76
2023/04/20 10:00:27;;;;;;;6.57;3.90;;;7.80;99.90;;;;;;5028120;28;20426;-74
2023/04/20 10:02:53;;;;;;;7.38;4.10;;;7.90;99.90;;;;;;5038350;28;20420;-74
2023/04/20 10:05:19;;;;;;;5.75;3.50;;;7.80;99.90;;;;;;5033286;28;20439;-74
2023/04/20 10:07:45;;;;;;;6.55;3.92;;;8.00;99.90;;;;;;5027765;28;20460;-74
2023/04/20 10:10:15;;;;;;;6.73;4.30;;;8.20;99.90;;;;;;5040705;28;20925;-74
2023/04/20 10:12:55;;;;;;;7.35;4.72;;;8.20;99.90;;;;;;5025513;28;20434;-75
2023/04/20 10:15:21;;;;;;;6.32;3.65;;;8.20;99.90;;;;;;5023698;28;20992;-75
2023/04/20 10:17:47;;;;;;;7.30;3.47;;;8.30;99.90;;;;;;5020999;28;20423;-74
2023/04/20 10:20:24;;;;;;;5.40;3.47;;;8.10;99.90;;;;;;5029332;28;20411;-74
2023/04/20 10:22:51;;;;;;;6.25;3.45;;;8.20;99.90;;;;;;5025902;28;20442;-76
2023/04/20 10:25:25;;;;;;;9.23;4.47;;;8.10;99.90;;;;;;5048208;28;20405;-76
2023/04/20 10:28:00;;;;;;;6.45;3.90;;;8.10;99.90;;;;;;5024075;28;20818;-75
2023/04/20 10:30:27;;;;;;;7.85;3.88;;;8.10;99.90;;;;;;5027174;28;20754;-76
2023/04/20 10:33:08;;;;;;;7.57;3.72;;;8.10;99.90;;;;;;5026781;28;20421;-76
2023/04/20 10:36:00;;;;;;;8.52;4.32;;;8.20;99.90;;;;;;5013310;28;20415;-76
2023/04/20 10:38:34;;;;;;;6.22;4.10;;;8.20;99.90;;;;;;5023921;28;20436;-76
2023/04/20 10:41:06;;;;;;;8.40;4.43;;;8.20;99.90;;;;;;5049694;28;20424;-76
2023/04/20 10:43:34;;;;;;;6.68;3.90;;;8.10;99.90;;;;;;5030982;28;20422;-76
2023/04/20 10:45:59;;;;;;;8.80;4.53;;;7.90;99.90;;;;;;5022631;28;20420;-77
2023/04/20 10:48:25;;;;;;;9.63;4.80;;;8.00;99.90;;;;;;5042502;28;20567;-76
2023/04/20 10:50:51;;;;;;;5.73;3.43;;;8.10;99.90;;;;;;5045057;28;20413;-75
2023/04/20 10:53:21;;;;;;;6.17;3.30;;;8.10;99.90;;;;;;5034214;28;20435;-77
2023/04/20 10:55:56;;;;;;;6.00;3.40;;;8.00;99.90;;;;;;5042948;28;20435;-75
2023/04/20 10:58:23;;;;;;;6.28;3.40;;;8.10;99.90;;;;;;5032945;28;20431;-75
2023/04/20 11:01:03;;;;;;;9.02;3.58;;;8.10;99.90;;;;;;5029488;28;21008;-76
2023/04/20 11:03:30;;;;;;;7.05;3.55;;;8.00;99.90;;;;;;5027201;28;20481;-75
2023/04/20 11:06:00;;;;;;;7.03;3.65;;;8.00;99.90;;;;;;5029134;28;20414;-76
2023/04/20 11:08:55;;;;;;;5.10;3.65;;;8.00;99.90;;;;;;5042739;28;20530;-74
2023/04/20 11:11:28;;;;;;;7.28;4.35;;;8.10;99.90;;;;;;5019188;28;20575;-76
2023/04/20 11:14:10;;;;;;;5.73;3.73;;;8.20;99.90;;;;;;5032714;28;20429;-76
2023/04/20 11:16:37;;;;;;;6.80;3.65;;;8.20;99.90;;;;;;5045678;28;20415;-77
2023/04/20 11:19:03;;;;;;;4.88;3.70;;;8.20;99.90;;;;;;5066452;28;20436;-77
2023/04/20 11:21:37;;;;;;;5.18;3.95;;;8.10;99.90;;;;;;5039789;28;20409;-75
2023/04/20 11:24:03;;;;;;;5.35;3.63;;;8.10;99.90;;;;;;5046121;28;20465;-75
2023/04/20 11:26:36;;;;;;;7.55;4.28;;;8.10;99.90;;;;;;5043690;28;20521;-73
2023/04/20 11:29:02;;;;;;;7.30;3.92;;;8.30;99.90;;;;;;5030987;28;20426;-76
2023/04/20 11:31:29;;;;;;;6.18;4.32;;;8.20;99.90;;;;;;5028114;28;20408;-75
2023/04/20 11:33:54;;;;;;;6.70;4.20;;;8.20;99.90;;;;;;5026355;28;20453;-74
2023/04/20 11:36:21;;;;;;;7.63;4.57;;;8.50;99.90;;;;;;5026062;28;20832;-76
2023/04/20 11:38:47;;;;;;;6.80;4.67;;;8.60;99.90;;;;;;5027119;28;20427;-75
2023/04/20 11:41:12;;;;;;;4.93;3.77;;;8.60;99.90;;;;;;5027040;28;20748;-76
2023/04/20 11:43:38;;;;;;;6.53;4.40;;;8.50;99.90;;;;;;5027057;28;20493;-77
2023/04/20 11:46:13;;;;;;;6.17;4.63;;;8.60;99.90;;;;;;5036581;28;20737;-75
2023/04/20 11:48:39;;;;;;;7.03;4.80;;;8.50;99.90;;;;;;5000205;28;20796;-74
2023/04/20 11:51:05;;;;;;;5.30;4.15;;;8.50;99.90;;;;;;5027066;28;20427;-75
2023/04/20 11:53:31;;;;;;;6.80;4.63;;;8.50;99.90;;;;;;5026140;28;20431;-75
2023/04/20 11:56:12;;;;;;;6.75;4.50;;;8.50;99.90;;;;;;5029381;28;20414;-76
2023/04/20 11:58:37;;;;;;;9.77;5.25;;;8.50;99.90;;;;;;5028202;28;21007;-76
2023/04/20 12:01:04;;;;;;;9.18;5.13;;;8.80;99.90;;;;;;5028733;28;20505;-76
2023/04/20 12:03:30;;;;;;;5.47;4.20;;;8.80;99.90;;;;;;5027560;28;20725;-75
2023/04/20 12:05:56;;;;;;;7.80;4.75;;;8.90;99.90;;;;;;5027098;28;20842;-76
2023/04/20 12:08:23;;;;;;;8.30;5.45;;;9.00;99.90;;;;;;5025724;28;20542;-75
2023/04/20 12:10:48;;;;;;;7.30;5.13;;;9.20;99.90;;;;;;5027724;28;20422;-76
2023/04/20 12:13:14;;;;;;;8.50;5.65;;;9.20;99.90;;;;;;5025436;28;20427;-76
2023/04/20 12:15:40;;;;;;;8.18;5.00;;;9.20;99.90;;;;;;5019624;28;20443;-79
2023/04/20 12:18:06;;;;;;;7.20;5.20;;;9.40;99.90;;;;;;5038654;28;20428;-76
2023/04/20 12:20:34;;;;;;;9.05;6.15;;;9.20;99.90;;;;;;5027086;28;20449;-76
2023/04/20 12:23:01;;;;;;;6.90;5.40;;;9.50;99.90;;;;;;5041800;28;20815;-77
2023/04/20 12:25:27;;;;;;;8.77;4.97;;;9.20;99.90;;;;;;5040908;28;20808;-76
2023/04/20 12:27:52;;;;;;;7.45;5.57;;;9.40;99.90;;;;;;5036011;28;20440;-76
2023/04/20 12:30:18;;;;;;;8.23;6.53;;;9.30;99.90;;;;;;5044926;28;20409;-76
2023/04/20 12:32:43;;;;;;;9.67;5.43;;;9.00;99.90;;;;;;5029518;28;20418;-76
2023/04/20 12:35:09;;;;;;;8.83;5.97;;;8.80;99.90;;;;;;5022306;28;20480;-76
2023/04/20 12:37:35;;;;;;;7.95;5.35;;;8.70;99.90;;;;;;5033933;28;20472;-76
2023/04/20 12:40:02;;;;;;;8.23;6.38;;;8.70;99.90;;;;;;5046788;28;20424;-76
2023/04/20 12:42:28;;;;;;;10.50;6.15;;;9.10;99.90;;;;;;5043260;28;20481;-75
2023/04/20 12:44:55;;;;;;;12.32;6.38;;;9.40;99.90;;;;;;5025920;28;20415;-76
2023/04/20 12:47:20;;;;;;;10.37;6.80;;;9.30;99.90;;;;;;5032122;28;20449;-76
2023/04/20 12:49:46;;;;;;;9.40;6.73;;;9.60;99.90;;;;;;5036034;28;20434;-75
2023/04/20 12:52:12;;;;;;;9.40;6.60;;;9.70;99.90;;;;;;5025763;28;20422;-76
2023/04/20 12:54:37;;;;;;;10.50;7.07;;;9.80;99.90;;;;;;5026241;28;20403;-76